Time;durP1;ratioP1;P1;durP2;ratioP2;P2;SDS_P1;SDS_P2;PMS_P1;PMS_P2;Temp;Humidity;BMP_temperature;BMP_pressure;BME280_temperature;BME280_humidity;BME280_pressure;Samples;Min_cycle;Max_cycle;Signal;HPM_P1;HPM_P2
2021/08/29 00:00:17;;;;;;;11.88;8.28;;;;;;;12.76;80.59;99560.48;1773441;81;20983;-66
2021/08/29 00:02:43;;;;;;;11.10;8.40;;;;;;;12.72;80.74;99557.52;1762607;80;21608;-65
2021/08/29 00:05:10;;;;;;;12.73;8.15;;;;;;;12.73;80.77;99568.71;1754155;81;20991;-65
2021/08/29 00:07:36;;;;;;;12.13;7.90;;;;;;;12.76;80.75;99566.77;1748843;81;20996;-65
2021/08/29 00:10:04;;;;;;;11.12;8.05;;;;;;;12.78;80.73;99556.38;1772580;81;20959;-66
2021/08/29 00:12:30;;;;;;;12.43;8.35;;;;;;;12.80;80.72;99556.06;1767490;81;21091;-65
2021/08/29 00:14:56;;;;;;;11.45;8.53;;;;;;;12.82;80.77;99545.11;1748235;81;21435;-65
2021/08/29 00:17:24;;;;;;;12.55;8.30;;;;;;;12.86;80.82;99557.08;1751300;81;21088;-65
2021/08/29 00:19:51;;;;;;;10.80;8.08;;;;;;;12.90;80.83;99564.96;1753436;82;20955;-65
2021/08/29 00:22:17;;;;;;;12.43;8.75;;;;;;;12.92;80.82;99561.95;1753022;82;21621;-65
2021/08/29 00:24:43;;;;;;;;;;;;;;;12.91;80.79;99546.66;1756056;82;20979;-65
2021/08/29 00:27:09;;;;;;;14.55;9.13;;;;;;;12.85;80.74;99544.55;1753211;81;20388;-65
2021/08/29 00:29:37;;;;;;;11.93;8.43;;;;;;;12.79;80.92;99537.50;1753292;82;20987;-65
2021/08/29 00:32:04;;;;;;;12.33;8.43;;;;;;;12.83;81.02;99533.63;1753022;82;20987;-65
2021/08/29 00:34:30;;;;;;;12.55;8.48;;;;;;;12.84;81.03;99525.16;1753115;82;21019;-66
2021/08/29 00:36:57;;;;;;;;;;;;;;;12.88;81.09;99537.13;1755708;82;21546;-65
2021/08/29 00:39:24;;;;;;;10.48;7.72;;;;;;;12.94;81.09;99539.23;1752990;82;20121;-66
2021/08/29 00:41:52;;;;;;;12.80;8.33;;;;;;;12.92;81.11;99552.39;1752888;82;21027;-65
2021/08/29 00:44:19;;;;;;;11.85;8.15;;;;;;;12.96;81.06;99565.19;1753310;82;21007;-65
2021/08/29 00:46:46;;;;;;;9.73;8.28;;;;;;;12.98;81.04;99567.61;1753035;82;21114;-65
2021/08/29 00:49:15;;;;;;;10.63;8.70;;;;;;;12.97;80.92;99568.16;1752905;82;21087;-65
2021/08/29 00:51:41;;;;;;;11.68;8.13;;;;;;;13.10;80.72;99557.67;1752924;82;21036;-65
2021/08/29 00:54:08;;;;;;;10.93;7.65;;;;;;;13.13;80.67;99548.33;1753017;82;22448;-65
2021/08/29 00:56:35;;;;;;;12.45;8.05;;;;;;;13.19;80.79;99544.42;1752828;82;21039;-65
2021/08/29 00:59:04;;;;;;;11.70;8.05;;;;;;;13.19;80.94;99540.87;1752967;82;21058;-65
2021/08/29 01:01:54;;;;;;;11.20;8.35;;;;;;;13.18;81.10;99536.53;1747401;82;21003;-65
2021/08/29 01:04:24;;;;;;;11.55;7.75;;;;;;;13.22;81.20;99540.28;1723366;83;21510;-65
2021/08/29 01:06:56;;;;;;;13.55;8.68;;;;;;;13.28;81.37;99545.41;1741327;82;20995;-65
2021/08/29 01:09:27;;;;;;;11.83;7.72;;;;;;;13.31;81.50;99531.15;1749095;82;20971;-65
2021/08/29 01:11:53;;;;;;;11.93;8.13;;;;;;;13.38;81.48;99527.49;1735671;82;21015;-65
2021/08/29 01:14:25;;;;;;;9.95;7.53;;;;;;;13.47;81.35;99522.16;1744021;82;20981;-66
2021/08/29 01:16:55;;;;;;;10.20;7.85;;;;;;;13.46;81.38;99518.61;1757209;81;21031;-65
2021/08/29 01:19:26;;;;;;;11.50;7.70;;;;;;;13.48;81.44;99528.45;1768323;81;21494;-65
2021/08/29 01:21:54;;;;;;;10.60;7.92;;;;;;;13.52;81.46;99526.20;1769654;80;21030;-65
2021/08/29 01:24:21;;;;;;;13.15;7.97;;;;;;;13.60;81.32;99543.31;1770650;81;20957;-65
2021/08/29 01:27:10;;;;;;;10.38;8.40;;;;;;;13.68;81.14;99543.17;1755970;81;20984;-65
2021/08/29 01:29:36;;;;;;;11.38;8.28;;;;;;;13.75;80.99;99551.83;1753335;81;21566;-65
2021/08/29 01:32:05;;;;;;;10.50;8.53;;;;;;;13.76;80.94;99547.98;1775797;80;22079;-65
2021/08/29 01:34:32;;;;;;;11.18;7.78;;;;;;;13.80;80.77;99543.55;1750386;81;20939;-65
2021/08/29 01:37:04;;;;;;;10.82;7.92;;;;;;;13.83;80.56;99535.56;1748116;80;20984;-65
2021/08/29 01:39:30;;;;;;;10.75;7.05;;;;;;;13.83;80.52;99526.53;1771180;81;21001;-65
2021/08/29 01:41:57;;;;;;;10.05;7.28;;;;;;;13.81;80.59;99527.40;1719095;81;21569;-65
2021/08/29 01:44:23;;;;;;;;;;;;;;;13.82;80.72;99524.90;1779870;81;20976;-65
2021/08/29 01:46:50;;;;;;;9.73;7.35;;;;;;;13.83;80.81;99531.45;1777831;81;20410;-65
2021/08/29 01:49:16;;;;;;;9.05;7.62;;;;;;;13.82;80.97;99529.00;1760039;81;21053;-66
2021/08/29 01:51:45;;;;;;;10.95;7.58;;;;;;;13.80;81.07;99533.98;1751314;81;21045;-65
2021/08/29 01:54:14;;;;;;;10.40;7.08;;;;;;;13.77;81.34;99535.39;1732884;81;21056;-65
2021/08/29 01:57:05;;;;;;;9.50;7.37;;;;;;;13.81;81.42;99539.71;1748528;81;21058;-65
2021/08/29 01:59:33;;;;;;;9.58;7.05;;;;;;;13.83;81.21;99534.19;1755724;81;21084;-65
2021/08/29 02:02:00;;;;;;;10.60;7.37;;;;;;;13.79;81.22;99536.44;1753256;81;21849;-65
2021/08/29 02:04:28;;;;;;;9.48;7.20;;;;;;;13.79;81.27;99533.70;1768244;81;21019;-66
2021/08/29 02:07:29;;;;;;;11.08;7.20;;;;;;;13.80;81.30;99540.27;1771413;81;20996;-65
2021/08/29 02:10:11;;;;;;;10.45;7.92;;;;;;;13.87;81.25;99546.72;1759117;81;21015;-65
2021/08/29 02:12:49;;;;;;;8.78;7.25;;;;;;;13.95;81.11;99544.69;1778276;80;21090;-65
2021/08/29 02:15:30;;;;;;;10.78;7.70;;;;;;;14.00;81.03;99555.53;1748654;81;20968;-65
2021/08/29 02:17:57;;;;;;;11.18;7.62;;;;;;;14.01;80.99;99553.06;1774211;80;21025;-65
2021/08/29 02:20:25;;;;;;;9.93;6.80;;;;;;;14.08;80.90;99554.05;1778569;81;21007;-65
2021/08/29 02:22:53;;;;;;;9.83;7.22;;;;;;;14.12;80.68;99553.16;1726202;81;21075;-65
2021/08/29 02:25:20;;;;;;;10.25;8.03;;;;;;;14.15;80.53;99549.00;1763665;80;20921;-65
2021/08/29 02:27:47;;;;;;;10.35;7.58;;;;;;;14.15;80.45;99546.26;1733861;81;21071;-65
2021/08/29 02:30:14;;;;;;;10.32;7.75;;;;;;;14.16;80.39;99545.97;1773824;81;20986;-65
2021/08/29 02:32:42;;;;;;;9.50;7.35;;;;;;;14.12;80.38;99544.13;1769573;80;21518;-65
2021/08/29 02:35:09;;;;;;;10.35;8.60;;;;;;;14.03;80.50;99548.67;1778986;81;21022;-65
2021/08/29 02:37:40;;;;;;;12.75;9.10;;;;;;;14.01;80.53;99548.95;1773836;81;21003;-65
2021/08/29 02:40:10;;;;;;;11.00;8.83;;;;;;;13.98;80.50;99548.19;1778133;81;21422;-65
2021/08/29 02:42:38;;;;;;;10.90;8.43;;;;;;;13.96;80.55;99544.92;1778666;80;21035;-65
2021/08/29 02:45:10;;;;;;;13.22;8.50;;;;;;;13.93;80.65;99534.58;1764704;81;20992;-65
2021/08/29 02:47:36;;;;;;;14.35;9.68;;;;;;;13.93;80.75;99539.50;1716760;81;21046;-65
2021/08/29 02:50:03;;;;;;;;;;;;;;;13.92;80.86;99529.66;1769641;81;21023;-65
2021/08/29 02:52:30;;;;;;;13.43;9.20;;;;;;;13.92;81.03;99539.81;1772856;80;20128;-65
2021/08/29 02:54:57;;;;;;;13.50;9.20;;;;;;;13.82;81.41;99541.31;1778646;81;20982;-65
2021/08/29 02:57:27;;;;;;;10.03;8.03;;;;;;;13.80;81.63;99535.34;1746018;81;21055;-65
2021/08/29 02:59:56;;;;;;;11.35;7.60;;;;;;;13.82;81.64;99527.64;1773392;81;21490;-65
2021/08/29 03:02:22;;;;;;;11.22;7.53;;;;;;;13.81;81.69;99531.50;1778719;80;21603;-65
2021/08/29 03:04:49;;;;;;;9.93;7.40;;;;;;;13.80;81.79;99531.23;1778715;81;21011;-65
2021/08/29 03:07:16;;;;;;;10.15;7.55;;;;;;;13.78;81.93;99531.52;1768839;81;21043;-65
2021/08/29 03:09:44;;;;;;;9.83;6.92;;;;;;;13.82;82.06;99524.34;1771159;81;21033;-66
2021/08/29 03:12:12;;;;;;;11.08;7.17;;;;;;;13.92;82.14;99523.39;1734927;81;21093;-66
2021/08/29 03:14:45;;;;;;;8.45;7.20;;;;;;;13.98;82.07;99524.11;1719268;81;20987;-65
2021/08/29 03:17:12;;;;;;;10.18;6.95;;;;;;;14.03;82.00;99533.03;1756669;81;21039;-65
2021/08/29 03:19:44;;;;;;;10.55;7.15;;;;;;;14.13;81.90;99530.16;1757623;80;21021;-65
2021/08/29 03:22:13;;;;;;;12.15;7.42;;;;;;;14.16;81.71;99525.45;1749218;81;21100;-65
2021/08/29 03:24:40;;;;;;;10.70;7.42;;;;;;;14.16;81.73;99526.81;1777691;80;21482;-66
2021/08/29 03:27:09;;;;;;;9.20;6.90;;;;;;;14.21;81.72;99529.45;1753273;80;21165;-65
2021/08/29 03:29:36;;;;;;;8.73;6.42;;;;;;;14.30;81.48;99516.70;1755368;80;21011;-65
2021/08/29 03:32:05;;;;;;;10.23;7.22;;;;;;;14.37;81.14;99521.27;1781749;80;21490;-65
2021/08/29 03:34:31;;;;;;;10.78;7.47;;;;;;;14.44;80.82;99518.13;1777202;80;20957;-65
2021/08/29 03:36:59;;;;;;;9.40;7.60;;;;;;;14.49;80.51;99514.48;1761192;80;20964;-66
2021/08/29 03:39:27;;;;;;;9.30;7.78;;;;;;;14.48;80.42;99515.59;1751217;80;21023;-66
2021/08/29 03:41:56;;;;;;;9.50;7.70;;;;;;;14.52;80.33;99518.80;1751423;80;21430;-66
2021/08/29 03:44:24;;;;;;;10.35;7.05;;;;;;;14.59;79.98;99508.81;1753704;80;20960;-65
2021/08/29 03:46:52;;;;;;;11.85;7.70;;;;;;;14.64;79.77;99503.22;1745924;80;20968;-65
2021/08/29 03:49:30;;;;;;;8.90;7.25;;;;;;;14.67;79.51;99496.57;1763210;80;21442;-65
2021/08/29 03:51:58;;;;;;;10.35;6.85;;;;;;;14.68;79.22;99491.35;1768944;80;21462;-65
2021/08/29 03:54:26;;;;;;;10.45;7.62;;;;;;;14.71;79.08;99485.81;1758491;80;20944;-68
2021/08/29 03:56:53;;;;;;;10.60;7.33;;;;;;;14.71;79.09;99482.52;1760144;80;20975;-67
2021/08/29 03:59:20;;;;;;;;;;;;;;;14.74;79.04;99480.53;1737982;80;21035;-67
2021/08/29 04:01:49;;;;;;;10.82;7.28;;;;;;;14.79;78.84;99481.00;1760813;80;20532;-67
2021/08/29 04:04:16;;;;;;;9.48;7.05;;;;;;;14.79;78.93;99483.19;1757790;80;21000;-65
2021/08/29 04:06:42;;;;;;;10.25;7.40;;;;;;;14.85;78.70;99481.14;1733139;80;21011;-66
2021/08/29 04:09:11;;;;;;;9.60;7.85;;;;;;;14.85;78.59;99479.77;1779233;80;21468;-67
2021/08/29 04:11:37;;;;;;;8.78;7.40;;;;;;;14.87;78.51;99477.00;1781714;80;21097;-66
2021/08/29 04:14:04;;;;;;;;;;;;;;;14.93;78.38;99479.88;1784179;80;21117;-66
2021/08/29 04:16:33;;;;;;;12.53;7.20;;;;;;;14.98;78.37;99478.15;1756659;80;20112;-67
2021/08/29 04:19:05;;;;;;;8.63;6.85;;;;;;;15.00;78.46;99476.72;1730983;82;21918;-66
2021/08/29 04:21:32;;;;;;;9.35;6.85;;;;;;;15.09;78.35;99481.71;1735529;82;21075;-66
2021/08/29 04:23:59;;;;;;;10.50;7.62;;;;;;;15.19;78.16;99482.89;1687770;84;21098;-65
2021/08/29 04:26:29;;;;;;;8.50;7.00;;;;;;;15.30;78.05;99472.50;1721607;82;21035;-66
2021/08/29 04:28:56;;;;;;;11.97;7.40;;;;;;;15.48;77.85;99474.83;1721548;82;21051;-67
2021/08/29 04:31:29;;;;;;;9.40;7.15;;;;;;;15.73;77.47;99484.65;1704713;82;21003;-66
2021/08/29 04:34:03;;;;;;;9.48;6.85;;;;;;;15.96;77.13;99491.52;1725254;82;21110;-66
2021/08/29 04:36:32;;;;;;;7.85;6.03;;;;;;;16.23;76.76;99486.67;1736234;81;21015;-66
2021/08/29 04:39:00;;;;;;;9.83;6.75;;;;;;;16.57;76.02;99489.39;1718291;82;21027;-67
2021/08/29 04:41:26;;;;;;;7.87;5.37;;;;;;;16.86;75.06;99487.70;1707512;82;20963;-68
2021/08/29 04:43:53;;;;;;;;;;;;;;;16.99;73.22;99478.28;1715528;82;21043;-68
2021/08/29 04:46:19;;;;;;;8.40;5.90;;;;;;;16.90;72.46;99472.75;1722332;82;20117;-67
2021/08/29 04:48:46;;;;;;;7.37;5.10;;;;;;;16.73;72.71;99482.33;1720489;82;21039;-67
2021/08/29 04:51:13;;;;;;;7.55;5.85;;;;;;;16.76;72.89;99489.92;1677991;85;21007;-67
2021/08/29 04:53:39;;;;;;;6.42;5.50;;;;;;;16.80;72.60;99471.11;1669901;84;21123;-67
2021/08/29 04:56:05;;;;;;;;;;;;;;;16.80;72.42;99475.23;1671241;85;20969;-68
2021/08/29 04:58:35;;;;;;;7.30;5.00;;;;;;;16.81;72.66;99469.99;1674517;85;20451;-67
2021/08/29 05:01:01;;;;;;;7.78;5.12;;;;;;;16.89;72.72;99465.09;1693111;84;20972;-66
2021/08/29 05:03:28;;;;;;;7.62;5.35;;;;;;;17.10;72.14;99474.92;1736341;81;21063;-67
2021/08/29 05:05:54;;;;;;;9.48;5.80;;;;;;;17.26;71.75;99471.94;1723540;82;21007;-67
2021/08/29 05:08:21;;;;;;;7.58;5.17;;;;;;;17.34;70.58;99469.77;1701286;82;21527;-66
2021/08/29 05:10:49;;;;;;;6.15;4.75;;;;;;;17.38;70.38;99463.87;1735761;82;21011;-67
2021/08/29 05:13:15;;;;;;;6.83;4.87;;;;;;;17.46;70.17;99466.94;1721457;82;21127;-67
2021/08/29 05:15:45;;;;;;;7.47;5.35;;;;;;;17.49;70.09;99484.17;1718193;82;20992;-68
2021/08/29 05:18:12;;;;;;;7.42;5.05;;;;;;;17.46;69.75;99470.52;1716058;82;21609;-67
2021/08/29 05:20:40;;;;;;;8.08;5.20;;;;;;;17.43;69.58;99463.69;1736166;82;21601;-69
2021/08/29 05:23:25;;;;;;;7.80;4.67;;;;;;;17.42;69.38;99465.41;1736643;82;21911;-69
2021/08/29 05:25:56;;;;;;;8.05;4.90;;;;;;;17.39;69.31;99456.42;1738090;81;21029;-68
2021/08/29 05:28:23;;;;;;;7.58;4.83;;;;;;;17.32;69.55;99462.98;1758735;81;21035;-67
2021/08/29 05:30:53;;;;;;;7.47;4.30;;;;;;;17.23;70.08;99458.83;1752312;81;21355;-66
2021/08/29 05:33:19;;;;;;;6.55;4.17;;;;;;;17.20;70.22;99450.41;1754073;81;21090;-66
2021/08/29 05:35:47;;;;;;;6.65;3.80;;;;;;;17.21;70.16;99454.79;1768951;81;21458;-71
2021/08/29 05:38:14;;;;;;;8.13;4.55;;;;;;;17.21;70.13;99451.48;1764699;80;21039;-68
2021/08/29 05:40:59;;;;;;;6.33;4.60;;;;;;;17.18;70.15;99449.34;1772889;81;20980;-68
2021/08/29 05:43:33;;;;;;;6.20;4.33;;;;;;;17.12;70.22;99442.95;1726462;81;21622;-64
2021/08/29 05:46:00;;;;;;;6.53;4.60;;;;;;;17.10;70.46;99441.91;1771043;81;21023;-68
2021/08/29 05:48:27;;;;;;;;;;;;;;;17.15;70.30;99440.37;1752399;81;21040;-69
2021/08/29 05:50:53;;;;;;;8.10;5.20;;;;;;;17.12;70.17;99441.02;1764331;81;20466;-69
2021/08/29 05:53:19;;;;;;;10.30;5.37;;;;;;;17.09;70.69;99441.66;1764741;81;21051;-73
2021/08/29 05:55:48;;;;;;;6.10;4.17;;;;;;;17.19;70.50;99440.53;1739862;81;20988;-70
2021/08/29 05:58:14;;;;;;;6.40;4.37;;;;;;;17.35;70.56;99432.88;1751350;81;21567;-69
2021/08/29 06:00:42;;;;;;;5.60;4.12;;;;;;;17.60;70.23;99432.66;1744216;81;21004;-68
2021/08/29 06:03:09;;;;;;;6.00;4.70;;;;;;;17.78;69.21;99432.84;1772387;81;21043;-69
2021/08/29 06:05:37;;;;;;;7.35;3.83;;;;;;;17.92;69.11;99420.86;1764219;81;20951;-69
2021/08/29 06:08:05;;;;;;;5.00;3.37;;;;;;;18.10;68.58;99426.56;1743103;82;21042;-68
2021/08/29 06:10:32;;;;;;;6.35;3.65;;;;;;;18.25;68.00;99418.55;1740290;81;21531;-67
2021/08/29 06:13:01;;;;;;;5.95;3.60;;;;;;;18.32;67.57;99419.41;1759658;81;21075;-67
2021/08/29 06:15:27;;;;;;;5.67;2.98;;;;;;;18.30;66.89;99414.81;1773302;81;21529;-64
2021/08/29 06:17:55;;;;;;;4.75;3.45;;;;;;;18.26;66.72;99413.30;1772528;80;21130;-67
2021/08/29 06:20:21;;;;;;;;;;;;;;;18.25;66.81;99408.09;1773652;81;21008;-67
2021/08/29 06:22:48;;;;;;;4.62;3.45;;;;;;;18.26;66.74;99420.18;1729250;82;20562;-66
2021/08/29 06:25:16;;;;;;;4.33;2.85;;;;;;;18.16;66.94;99415.60;1740445;81;21007;-66
2021/08/29 06:28:02;;;;;;;7.85;3.50;;;;;;;18.09;66.83;99411.98;1750986;81;21601;-67
2021/08/29 06:30:39;;;;;;;5.45;3.15;;;;;;;18.00;67.25;99415.31;1640262;86;21573;-68
2021/08/29 06:33:11;;;;;;;5.80;3.08;;;;;;;18.05;67.42;99412.39;1759642;80;21534;-68
2021/08/29 06:35:41;;;;;;;5.28;2.37;;;;;;;18.10;67.43;99414.17;1746510;81;20996;-67
2021/08/29 06:38:08;;;;;;;5.42;2.90;;;;;;;18.08;67.77;99404.84;1761032;81;21015;-67
2021/08/29 06:40:35;;;;;;;4.50;3.02;;;;;;;18.05;68.01;99407.45;1769381;80;21776;-66
2021/08/29 06:43:01;;;;;;;5.05;3.00;;;;;;;18.10;67.87;99405.34;1748667;81;21103;-66
2021/08/29 06:45:45;;;;;;;4.33;3.35;;;;;;;18.19;67.87;99408.05;1747691;81;21032;-66
2021/08/29 06:48:22;;;;;;;5.62;3.40;;;;;;;18.14;67.77;99411.78;1723805;81;21033;-66
2021/08/29 06:51:06;;;;;;;4.58;3.12;;;;;;;18.09;67.95;99403.72;1652525;86;21000;-68
2021/08/29 06:53:36;;;;;;;6.00;3.60;;;;;;;18.14;67.97;99406.27;1652134;84;21087;-70
2021/08/29 06:56:21;;;;;;;4.22;2.87;;;;;;;18.14;67.84;99404.89;1696443;84;21824;-68
2021/08/29 06:58:52;;;;;;;5.87;3.00;;;;;;;18.07;68.23;99391.39;1682378;84;21050;-66
2021/08/29 07:01:18;;;;;;;6.83;2.95;;;;;;;18.02;68.68;99391.02;1759620;81;21404;-66
2021/08/29 07:03:46;;;;;;;4.92;3.12;;;;;;;18.02;68.94;99395.16;1764367;80;21016;-70
2021/08/29 07:06:12;;;;;;;6.60;2.90;;;;;;;17.95;69.34;99398.17;1767393;81;20975;-67
2021/08/29 07:08:58;;;;;;;3.65;2.85;;;;;;;17.88;69.91;99394.55;1753531;80;21519;-67
2021/08/29 07:11:24;;;;;;;4.08;3.05;;;;;;;17.87;70.34;99399.23;1761281;81;21003;-72
2021/08/29 07:14:01;;;;;;;3.47;2.72;;;;;;;17.82;70.82;99394.45;1687303;83;21074;-67
2021/08/29 07:16:28;;;;;;;3.50;2.60;;;;;;;17.79;71.22;99378.59;1752772;81;21068;-67
2021/08/29 07:18:57;;;;;;;4.45;2.62;;;;;;;17.74;71.67;99379.60;1773254;81;21144;-67
2021/08/29 07:21:24;;;;;;;5.28;2.67;;;;;;;17.69;71.65;99374.26;1770646;81;20999;-67
2021/08/29 07:24:09;;;;;;;4.08;2.60;;;;;;;17.72;71.63;99370.03;1761822;81;21118;-67
2021/08/29 07:26:53;;;;;;;6.58;2.58;;;;;;;17.69;71.62;99375.64;1756871;81;20984;-68
2021/08/29 07:29:39;;;;;;;3.95;2.50;;;;;;;17.69;71.26;99370.69;1747507;82;21059;-68
2021/08/29 07:32:58;;;;;;;5.33;2.30;;;;;;;17.77;70.60;99358.86;1799983;78;22827;-66
2021/08/29 07:35:27;;;;;;;6.17;3.10;;;;;;;17.71;70.06;99367.84;1760522;81;21009;-65
2021/08/29 07:37:58;;;;;;;5.10;2.87;;;;;;;17.72;69.67;99369.47;1758718;80;21046;-68
2021/08/29 07:40:24;;;;;;;;;;;;;;;17.76;69.61;99359.98;1760786;81;21615;-69
2021/08/29 07:42:52;;;;;;;3.33;2.33;;;;;;;17.78;69.31;99356.36;1756626;80;20102;-68
2021/08/29 07:45:18;;;;;;;6.17;2.20;;;;;;;17.74;69.10;99354.02;1761420;81;21008;-70
2021/08/29 07:47:52;;;;;;;6.47;2.65;;;;;;;17.72;69.31;99353.52;1759924;80;21087;-68
2021/08/29 07:50:13;;;;;;;3.08;2.22;;;;;;;17.76;68.83;99364.12;1749666;81;21085;-66
2021/08/29 07:52:39;;;;;;;4.37;2.30;;;;;;;17.88;69.01;99352.68;1740959;81;21576;-66
2021/08/29 07:55:25;;;;;;;4.62;2.55;;;;;;;18.04;68.92;99350.17;1726016;81;21055;-67
2021/08/29 07:57:55;;;;;;;4.70;2.20;;;;;;;18.13;68.68;99337.19;1700606;81;21069;-68
2021/08/29 08:00:24;;;;;;;7.87;2.20;;;;;;;18.18;68.26;99338.37;1758754;81;21009;-68
2021/08/29 08:02:53;;;;;;;4.55;2.47;;;;;;;18.31;68.28;99344.80;1753520;80;21114;-69
2021/08/29 08:05:30;;;;;;;3.42;2.20;;;;;;;18.51;67.03;99345.44;1691891;84;21539;-67
2021/08/29 08:08:15;;;;;;;3.37;2.17;;;;;;;18.70;66.14;99346.39;1755128;81;21036;-67
2021/08/29 08:10:59;;;;;;;6.65;2.17;;;;;;;18.83;65.02;99341.17;1752053;81;21064;-67
2021/08/29 08:13:27;;;;;;;2.92;1.98;;;;;;;18.87;64.96;99337.98;1760099;80;20991;-67
2021/08/29 08:15:54;;;;;;;3.30;2.00;;;;;;;19.06;64.82;99340.28;1748797;81;20963;-68
2021/08/29 08:18:21;;;;;;;3.77;2.27;;;;;;;19.29;63.94;99327.73;1744826;81;21040;-67
2021/08/29 08:20:47;;;;;;;4.22;2.40;;;;;;;19.51;63.33;99325.20;1730577;81;20973;-67
2021/08/29 08:23:22;;;;;;;4.28;2.20;;;;;;;19.70;62.05;99319.37;1750620;80;21606;-69
2021/08/29 08:26:03;;;;;;;5.92;2.20;;;;;;;19.87;61.57;99315.63;1746052;81;21461;-67
2021/08/29 08:28:48;;;;;;;4.80;2.02;;;;;;;20.04;61.49;99316.79;1749206;81;21077;-67
2021/08/29 08:31:33;;;;;;;4.87;2.30;;;;;;;20.17;60.55;99312.88;1751564;80;21656;-67
2021/08/29 08:34:08;;;;;;;4.50;2.40;;;;;;;20.14;60.29;99301.13;1735082;81;21605;-68
2021/08/29 08:36:36;;;;;;;3.08;2.10;;;;;;;20.06;59.97;99303.99;1745486;81;21569;-67
2021/08/29 08:39:20;;;;;;;3.30;2.20;;;;;;;19.98;59.98;99305.71;1750706;80;21315;-69
2021/08/29 08:41:49;;;;;;;3.67;1.90;;;;;;;19.96;60.49;99288.69;1739351;80;21063;-66
2021/08/29 08:44:33;;;;;;;3.65;2.10;;;;;;;19.95;60.68;99285.69;1748517;81;21069;-67
2021/08/29 08:47:20;;;;;;;3.45;2.40;;;;;;;20.04;60.45;99278.68;1711065;83;21113;-67
2021/08/29 08:50:05;;;;;;;3.85;2.37;;;;;;;20.14;60.19;99281.79;1718436;83;21596;-67
2021/08/29 08:52:49;;;;;;;4.50;2.33;;;;;;;20.21;59.97;99270.96;1682380;84;21597;-68
2021/08/29 08:55:27;;;;;;;4.15;2.20;;;;;;;20.39;60.88;99270.74;1681409;83;21023;-71
2021/08/29 08:58:12;;;;;;;5.55;3.37;;;;;;;20.70;60.73;99266.19;1719108;82;21294;-67
2021/08/29 09:01:05;;;;;;;3.67;2.15;;;;;;;21.00;59.73;99263.91;1704670;82;21016;-72
2021/08/29 09:03:36;;;;;;;4.37;1.90;;;;;;;21.20;58.61;99260.72;1723996;81;21031;-68
2021/08/29 09:06:08;;;;;;;4.65;1.98;;;;;;;21.15;57.63;99257.62;1721670;82;21106;-67
2021/08/29 09:08:35;;;;;;;3.00;2.05;;;;;;;21.06;57.61;99251.42;1736672;81;21033;-69
2021/08/29 09:11:03;;;;;;;4.03;2.17;;;;;;;20.97;57.22;99247.20;1739087;81;20979;-66
2021/08/29 09:13:54;;;;;;;3.33;1.92;;;;;;;20.93;57.82;99244.91;1736557;81;21075;-69
2021/08/29 09:16:22;;;;;;;3.50;1.77;;;;;;;20.96;57.92;99242.81;1701965;82;21028;-66
2021/08/29 09:18:54;;;;;;;3.27;1.92;;;;;;;21.02;57.46;99238.06;1731756;81;21047;-69
2021/08/29 09:21:35;;;;;;;4.03;1.90;;;;;;;21.05;57.54;99234.58;1732663;82;21544;-68
2021/08/29 09:24:09;;;;;;;3.25;1.87;;;;;;;21.12;57.02;99239.53;1724504;82;21518;-68
2021/08/29 09:26:43;;;;;;;3.83;1.95;;;;;;;21.10;56.92;99234.91;1720584;82;21573;-68
2021/08/29 09:29:24;;;;;;;3.20;1.90;;;;;;;21.21;56.77;99231.31;1725082;81;21026;-67
2021/08/29 09:31:52;;;;;;;4.42;2.33;;;;;;;21.25;56.35;99229.45;1734605;80;21058;-67
2021/08/29 09:34:27;;;;;;;4.72;2.20;;;;;;;21.30;57.05;99226.98;1735167;81;21031;-68
2021/08/29 09:37:01;;;;;;;3.50;2.55;;;;;;;21.34;55.90;99223.16;1722784;82;21064;-66
2021/08/29 09:39:42;;;;;;;3.15;2.05;;;;;;;21.36;55.60;99219.24;1726368;82;21056;-68
2021/08/29 09:42:10;;;;;;;3.27;1.70;;;;;;;21.42;56.21;99217.81;1725843;82;21051;-68
2021/08/29 09:44:42;;;;;;;4.15;2.00;;;;;;;21.52;56.82;99216.70;1740556;82;21023;-67
2021/08/29 09:47:16;;;;;;;2.75;1.95;;;;;;;21.70;57.04;99211.03;1690464;81;21071;-68
2021/08/29 09:50:06;;;;;;;5.65;2.10;;;;;;;21.91;57.12;99198.31;1733995;81;21580;-70
2021/08/29 09:52:34;;;;;;;3.77;2.00;;;;;;;22.13;56.58;99192.11;1699983;82;21065;-65
2021/08/29 09:55:07;;;;;;;3.05;2.20;;;;;;;22.30;55.90;99183.95;1712936;82;21074;-66
2021/08/29 09:57:35;;;;;;;3.62;2.15;;;;;;;22.40;54.97;99184.77;1696386;82;21559;-66
2021/08/29 10:00:09;;;;;;;3.92;2.12;;;;;;;22.46;55.07;99192.23;1722351;82;21883;-67
2021/08/29 10:02:42;;;;;;;4.92;2.25;;;;;;;22.53;54.78;99191.00;1725657;82;21039;-68
2021/08/29 10:05:16;;;;;;;3.72;2.55;;;;;;;22.64;54.38;99185.87;1731060;81;21055;-66
2021/08/29 10:08:11;;;;;;;5.22;2.35;;;;;;;22.73;54.34;99182.92;1743725;80;21039;-68
2021/08/29 10:10:47;;;;;;;3.83;2.30;;;;;;;22.62;53.83;99171.58;1734045;81;21522;-69
2021/08/29 10:13:16;;;;;;;7.60;2.47;;;;;;;22.41;53.90;99171.72;1750317;81;21122;-69
2021/08/29 10:15:50;;;;;;;5.30;2.52;;;;;;;22.36;54.76;99158.93;1750386;81;20948;-64
2021/08/29 10:18:37;;;;;;;4.85;2.60;;;;;;;22.40;54.88;99156.23;1737807;82;21548;-66
2021/08/29 10:21:24;;;;;;;3.83;2.90;;;;;;;22.46;54.57;99152.02;1746467;81;20974;-67
2021/08/29 10:23:53;;;;;;;4.30;2.65;;;;;;;22.51;54.87;99155.87;1740567;81;21034;-67
2021/08/29 10:26:21;;;;;;;5.85;2.67;;;;;;;22.59;55.25;99147.93;1743477;81;20981;-68
2021/08/29 10:29:07;;;;;;;3.80;2.42;;;;;;;22.66;54.69;99138.36;1740640;81;21086;-68
2021/08/29 10:32:05;;;;;;;5.83;3.15;;;;;;;22.72;55.23;99141.08;1750750;81;21028;-65
2021/08/29 10:34:34;;;;;;;3.60;2.60;;;;;;;22.76;55.20;99137.80;1750224;81;21064;-66
2021/08/29 10:37:03;;;;;;;5.90;2.42;;;;;;;22.89;55.52;99139.23;1746752;81;21098;-65
2021/08/29 10:39:49;;;;;;;4.25;2.67;;;;;;;23.04;55.36;99142.50;1735081;81;21052;-66
2021/08/29 10:42:38;;;;;;;3.52;2.70;;;;;;;23.15;55.03;99136.55;1736758;81;21545;-67
2021/08/29 10:45:11;;;;;;;4.72;3.02;;;;;;;23.22;55.26;99140.05;1723436;81;21087;-71
2021/08/29 10:47:57;;;;;;;4.25;2.92;;;;;;;23.29;55.38;99130.45;1654520;85;21078;-70
2021/08/29 10:50:41;;;;;;;4.65;3.30;;;;;;;23.36;55.10;99115.88;1602098;88;21570;-70
2021/08/29 10:53:34;;;;;;;4.22;3.25;;;;;;;23.42;54.89;99122.77;1671680;83;21499;-69
2021/08/29 10:56:20;;;;;;;6.95;4.00;;;;;;;23.43;54.69;99126.55;1731329;81;21402;-68
2021/08/29 10:59:11;;;;;;;5.55;3.70;;;;;;;23.41;54.49;99125.30;1730009;82;21051;-69
2021/08/29 11:01:41;;;;;;;5.75;2.98;;;;;;;23.44;54.82;99125.97;1740975;81;20977;-71
2021/08/29 11:04:30;;;;;;;4.95;3.55;;;;;;;23.45;55.11;99117.28;1665301;83;21699;-67
2021/08/29 11:07:02;;;;;;;4.15;3.22;;;;;;;23.44;54.69;99109.30;1731146;81;21658;-67
2021/08/29 11:09:38;;;;;;;8.85;7.35;;;;;;;23.33;54.91;99117.43;1726641;81;21059;-67
2021/08/29 11:12:19;;;;;;;6.50;4.12;;;;;;;23.33;55.63;99111.88;1722858;82;21468;-68
2021/08/29 11:14:55;;;;;;;7.35;3.98;;;;;;;23.30;55.67;99110.65;1718363;81;21054;-67
2021/08/29 11:17:33;;;;;;;4.97;3.70;;;;;;;23.28;55.68;99107.42;1738260;81;21569;-67
2021/08/29 11:20:10;;;;;;;6.70;4.00;;;;;;;23.27;55.54;99111.40;1726646;82;20969;-68
2021/08/29 11:22:56;;;;;;;5.05;3.75;;;;;;;23.22;55.59;99121.41;1722365;82;21039;-71
2021/08/29 11:25:29;;;;;;;6.60;3.85;;;;;;;23.16;56.21;99115.16;1685940;82;21613;-70
2021/08/29 11:28:03;;;;;;;5.55;3.87;;;;;;;23.16;56.78;99109.02;1745934;82;20995;-70
2021/08/29 11:30:48;;;;;;;7.33;4.25;;;;;;;23.20;56.35;99105.69;1748112;82;21589;-68
2021/08/29 11:33:26;;;;;;;8.50;4.00;;;;;;;23.22;56.14;99098.39;1739283;81;21533;-71
2021/08/29 11:35:55;;;;;;;5.22;3.45;;;;;;;23.26;56.44;99097.88;1736696;82;20975;-69
2021/08/29 11:38:37;;;;;;;6.65;3.85;;;;;;;23.32;56.71;99101.93;1702377;82;21522;-69
2021/08/29 11:41:14;;;;;;;5.05;3.50;;;;;;;23.34;56.16;99093.23;1746837;81;21042;-71
2021/08/29 11:43:49;;;;;;;7.42;4.00;;;;;;;23.34;56.04;99096.83;1746879;81;21684;-69
2021/08/29 11:46:20;;;;;;;4.17;3.52;;;;;;;23.40;56.17;99091.74;1745616;82;20975;-69
2021/08/29 11:49:04;;;;;;;5.67;3.62;;;;;;;23.46;56.43;99098.61;1745841;81;21027;-70
2021/08/29 11:51:39;;;;;;;4.20;2.80;;;;;;;23.44;56.36;99089.86;1719202;82;21873;-70
2021/08/29 11:54:25;;;;;;;6.00;3.85;;;;;;;23.47;56.15;99078.80;1740967;81;21458;-69
2021/08/29 11:56:54;;;;;;;6.30;4.05;;;;;;;23.48;56.15;99088.75;1748107;81;20993;-68